Santa Rosa Beach, FL (32459)

6:09 PM CST on December 22, 2014 (GMT -0600)
Bayside Subdivision | Change Station
CLOSE
Current Station
Personal Weather Station
Location: Miramar Beach, FL
Elevation: 25 ft
Nearby Weather Stations
Active Advisory: Flash Flood Watch

Elev 25 ft 30.38 °N, 86.35 °W | Updated 9 seconds ago

Partly Cloudy
Partly Cloudy
62.4 °F
Feels Like 62.4 °F
N
0.0
Wind Variable Wind from SE
Gusts 0.0 mph

Today
High -- | Low -- °F
--% Chance of Precip.
Yesterday
High -- | Low -- °F
Precip. -- in
6:37 AM 4:49 PM
New Moon, 1% visible
Pressure 29.81 in
Visibility 9.0 miles
Clouds Clear
Dew Point 59 °F
Humidity 90%
Rainfall 0.30 in
Snow Depth Not available.
UV 0 out of 12
Pollen 2.00 out of 12
Air Quality Not available.
Flu Activity Not available.
METAR KDTS 222353Z AUTO 00000KT 9SM CLR 17/16 A2981 RMK AO2 SLP093 60008 T01670161 10211 20167 51004 TSNO

More Conditions Fewer Conditions

Pressure 29.81 in
Visibility 9.0 miles
Clouds Clear
Dew Point 59 °F
Humidity 90%
Rainfall 0.30 in
Snow Depth Not available.
UV 0 out of 12
Pollen 2.00 out of 12
Air Quality Not available.
Flu Activity Not available.
METAR KDTS 222353Z AUTO 00000KT 9SM CLR 17/16 A2981 RMK AO2 SLP093 60008 T01670161 10211 20167 51004 TSNO

More Conditions Fewer Conditions

10-Day Weather Forecast

Almanac

Astronomy

Dec. 22, 2014 Rise Set
Actual Time
Civil Twilight
Nautical Twilight
Astronomical Twilight
Moon
Length of Visible Light
Length of Day
Tomorrow will be .
, % of the Moon is Illuminated

Today's Extremes

State Highs State Lows

Community

WunderPhotos

Upload Photos

1,779,732 photos uploaded!

WunderBlogs® & News

Nearby

Air Quality

  Air Quality AQ Index Pollutant
Not available.

Snow Depth

Station Depth Elevation

Earthquake Activity

City Distance Mag. Time & Date
Minimum magnitude displayed is 2.5.

Coastal Water Temperatures

Place Temperature

Nearby Weather Stations